sensor_id;sensor_type;location;lat;lon;timestamp;P1;durP1;ratioP1;P2;durP2;ratioP2
76210;SDS011;65003;49.518;11.280;2023-05-02T00:01:26;7.60;;;5.67;;
76210;SDS011;65003;49.518;11.280;2023-05-02T00:03:52;7.03;;;5.90;;
76210;SDS011;65003;49.518;11.280;2023-05-02T00:06:19;6.97;;;6.27;;
76210;SDS011;65003;49.518;11.280;2023-05-02T00:08:47;6.97;;;6.27;;
76210;SDS011;65003;49.518;11.280;2023-05-02T00:11:12;8.10;;;6.33;;
76210;SDS011;65003;49.518;11.280;2023-05-02T00:13:39;9.47;;;6.47;;
76210;SDS011;65003;49.518;11.280;2023-05-02T00:16:05;7.87;;;6.00;;
76210;SDS011;65003;49.518;11.280;2023-05-02T00:18:32;6.90;;;6.20;;
76210;SDS011;65003;49.518;11.280;2023-05-02T00:20:58;7.60;;;6.00;;
76210;SDS011;65003;49.518;11.280;2023-05-02T00:23:25;8.10;;;6.47;;
76210;SDS011;65003;49.518;11.280;2023-05-02T00:25:52;10.17;;;7.03;;
76210;SDS011;65003;49.518;11.280;2023-05-02T00:28:18;9.83;;;6.97;;
76210;SDS011;65003;49.518;11.280;2023-05-02T00:30:45;8.57;;;6.97;;
76210;SDS011;65003;49.518;11.280;2023-05-02T00:33:12;7.33;;;6.63;;
76210;SDS011;65003;49.518;11.280;2023-05-02T00:35:38;8.17;;;6.63;;
76210;SDS011;65003;49.518;11.280;2023-05-02T00:38:05;8.00;;;7.20;;
76210;SDS011;65003;49.518;11.280;2023-05-02T00:40:41;6.80;;;5.97;;
76210;SDS011;65003;49.518;11.280;2023-05-02T00:42:58;6.83;;;5.73;;
76210;SDS011;65003;49.518;11.280;2023-05-02T00:45:24;8.33;;;6.70;;
76210;SDS011;65003;49.518;11.280;2023-05-02T00:47:51;8.23;;;7.40;;
76210;SDS011;65003;49.518;11.280;2023-05-02T00:50:18;8.00;;;7.00;;
76210;SDS011;65003;49.518;11.280;2023-05-02T00:52:44;7.43;;;6.73;;
76210;SDS011;65003;49.518;11.280;2023-05-02T00:55:11;9.13;;;7.37;;
76210;SDS011;65003;49.518;11.280;2023-05-02T00:57:37;9.83;;;7.40;;
76210;SDS011;65003;49.518;11.280;2023-05-02T01:00:04;9.67;;;6.63;;
76210;SDS011;65003;49.518;11.280;2023-05-02T01:02:36;8.07;;;7.10;;
76210;SDS011;65003;49.518;11.280;2023-05-02T01:05:03;8.20;;;7.20;;
76210;SDS011;65003;49.518;11.280;2023-05-02T01:10:25;7.63;;;6.00;;
76210;SDS011;65003;49.518;11.280;2023-05-02T01:12:53;8.33;;;6.40;;
76210;SDS011;65003;49.518;11.280;2023-05-02T01:15:19;7.13;;;6.43;;
76210;SDS011;65003;49.518;11.280;2023-05-02T01:17:45;7.07;;;5.87;;
76210;SDS011;65003;49.518;11.280;2023-05-02T01:20:13;6.87;;;6.17;;
76210;SDS011;65003;49.518;11.280;2023-05-02T01:22:39;6.57;;;5.97;;
76210;SDS011;65003;49.518;11.280;2023-05-02T01:25:13;6.93;;;5.73;;
76210;SDS011;65003;49.518;11.280;2023-05-02T01:30:13;9.37;;;6.37;;
76210;SDS011;65003;49.518;11.280;2023-05-02T01:32:40;7.70;;;6.13;;
76210;SDS011;65003;49.518;11.280;2023-05-02T01:35:06;6.40;;;5.80;;
76210;SDS011;65003;49.518;11.280;2023-05-02T01:37:33;6.97;;;5.17;;
76210;SDS011;65003;49.518;11.280;2023-05-02T01:40:00;7.80;;;5.80;;
76210;SDS011;65003;49.518;11.280;2023-05-02T01:42:26;6.80;;;6.10;;
76210;SDS011;65003;49.518;11.280;2023-05-02T01:44:53;6.20;;;5.60;;
76210;SDS011;65003;49.518;11.280;2023-05-02T01:47:20;6.30;;;5.70;;
76210;SDS011;65003;49.518;11.280;2023-05-02T01:49:46;8.47;;;5.47;;
76210;SDS011;65003;49.518;11.280;2023-05-02T01:52:12;7.10;;;6.23;;
76210;SDS011;65003;49.518;11.280;2023-05-02T01:54:39;8.57;;;6.33;;
76210;SDS011;65003;49.518;11.280;2023-05-02T01:57:06;7.50;;;6.33;;
76210;SDS011;65003;49.518;11.280;2023-05-02T01:59:32;8.00;;;6.83;;
76210;SDS011;65003;49.518;11.280;2023-05-02T02:02:00;7.77;;;6.37;;
76210;SDS011;65003;49.518;11.280;2023-05-02T02:04:25;7.23;;;6.30;;
76210;SDS011;65003;49.518;11.280;2023-05-02T02:07:01;10.97;;;6.90;;
76210;SDS011;65003;49.518;11.280;2023-05-02T02:09:29;7.70;;;6.90;;
76210;SDS011;65003;49.518;11.280;2023-05-02T02:11:56;8.00;;;5.90;;
76210;SDS011;65003;49.518;11.280;2023-05-02T02:14:26;8.60;;;7.13;;
76210;SDS011;65003;49.518;11.280;2023-05-02T02:16:54;10.07;;;7.77;;
76210;SDS011;65003;49.518;11.280;2023-05-02T02:19:19;13.23;;;8.63;;
76210;SDS011;65003;49.518;11.280;2023-05-02T02:21:46;9.70;;;7.77;;
76210;SDS011;65003;49.518;11.280;2023-05-02T02:24:13;11.20;;;7.80;;
76210;SDS011;65003;49.518;11.280;2023-05-02T02:26:40;11.37;;;8.23;;
76210;SDS011;65003;49.518;11.280;2023-05-02T02:29:06;9.50;;;8.50;;
76210;SDS011;65003;49.518;11.280;2023-05-02T02:31:33;13.67;;;8.57;;
76210;SDS011;65003;49.518;11.280;2023-05-02T02:33:59;10.87;;;8.60;;
76210;SDS011;65003;49.518;11.280;2023-05-02T02:36:28;10.73;;;9.10;;
76210;SDS011;65003;49.518;11.280;2023-05-02T02:39:01;11.80;;;8.87;;
76210;SDS011;65003;49.518;11.280;2023-05-02T02:41:46;9.97;;;7.83;;
76210;SDS011;65003;49.518;11.280;2023-05-02T02:44:12;9.90;;;8.33;;
76210;SDS011;65003;49.518;11.280;2023-05-02T02:46:42;9.40;;;8.03;;
76210;SDS011;65003;49.518;11.280;2023-05-02T02:49:16;10.10;;;8.30;;
76210;SDS011;65003;49.518;11.280;2023-05-02T02:52:17;8.93;;;7.33;;
76210;SDS011;65003;49.518;11.280;2023-05-02T02:54:58;10.03;;;7.07;;
76210;SDS011;65003;49.518;11.280;2023-05-02T02:57:27;7.37;;;6.67;;
76210;SDS011;65003;49.518;11.280;2023-05-02T02:59:57;7.93;;;7.13;;
76210;SDS011;65003;49.518;11.280;2023-05-02T03:02:25;9.60;;;7.10;;
76210;SDS011;65003;49.518;11.280;2023-05-02T03:04:49;9.23;;;6.93;;
76210;SDS011;65003;49.518;11.280;2023-05-02T03:07:16;9.23;;;6.70;;
76210;SDS011;65003;49.518;11.280;2023-05-02T03:09:44;8.53;;;7.47;;
76210;SDS011;65003;49.518;11.280;2023-05-02T03:12:10;8.27;;;6.73;;
76210;SDS011;65003;49.518;11.280;2023-05-02T03:14:37;9.90;;;6.87;;
76210;SDS011;65003;49.518;11.280;2023-05-02T03:17:03;7.50;;;6.20;;
76210;SDS011;65003;49.518;11.280;2023-05-02T03:19:30;7.17;;;6.30;;
76210;SDS011;65003;49.518;11.280;2023-05-02T03:21:57;8.03;;;5.63;;
76210;SDS011;65003;49.518;11.280;2023-05-02T03:24:23;7.67;;;6.50;;
76210;SDS011;65003;49.518;11.280;2023-05-02T03:26:52;7.13;;;5.83;;
76210;SDS011;65003;49.518;11.280;2023-05-02T03:29:17;6.93;;;6.00;;
76210;SDS011;65003;49.518;11.280;2023-05-02T03:31:43;9.57;;;6.33;;
76210;SDS011;65003;49.518;11.280;2023-05-02T03:34:10;8.97;;;5.90;;
76210;SDS011;65003;49.518;11.280;2023-05-02T03:36:36;7.57;;;6.57;;
76210;SDS011;65003;49.518;11.280;2023-05-02T03:39:03;8.30;;;6.47;;
76210;SDS011;65003;49.518;11.280;2023-05-02T03:41:29;9.70;;;6.30;;
76210;SDS011;65003;49.518;11.280;2023-05-02T03:43:56;9.97;;;6.47;;
76210;SDS011;65003;49.518;11.280;2023-05-02T03:46:23;7.47;;;6.10;;
76210;SDS011;65003;49.518;11.280;2023-05-02T03:48:49;6.60;;;5.87;;
76210;SDS011;65003;49.518;11.280;2023-05-02T03:51:16;6.23;;;5.63;;
76210;SDS011;65003;49.518;11.280;2023-05-02T03:53:42;7.70;;;6.53;;
76210;SDS011;65003;49.518;11.280;2023-05-02T03:56:09;8.73;;;7.33;;
76210;SDS011;65003;49.518;11.280;2023-05-02T03:58:36;7.40;;;6.37;;
76210;SDS011;65003;49.518;11.280;2023-05-02T04:01:02;8.53;;;7.47;;
76210;SDS011;65003;49.518;11.280;2023-05-02T04:03:29;11.33;;;7.03;;
76210;SDS011;65003;49.518;11.280;2023-05-02T04:05:55;7.70;;;6.47;;
76210;SDS011;65003;49.518;11.280;2023-05-02T04:08:22;7.80;;;6.53;;
76210;SDS011;65003;49.518;11.280;2023-05-02T04:10:50;7.90;;;6.40;;
76210;SDS011;65003;49.518;11.280;2023-05-02T04:13:15;9.23;;;7.00;;
76210;SDS011;65003;49.518;11.280;2023-05-02T04:15:43;9.33;;;6.33;;
76210;SDS011;65003;49.518;11.280;2023-05-02T04:18:08;7.37;;;6.47;;
76210;SDS011;65003;49.518;11.280;2023-05-02T04:20:35;8.57;;;7.67;;
76210;SDS011;65003;49.518;11.280;2023-05-02T04:23:02;8.00;;;6.70;;
76210;SDS011;65003;49.518;11.280;2023-05-02T04:25:28;8.57;;;7.17;;
76210;SDS011;65003;49.518;11.280;2023-05-02T04:27:55;9.57;;;6.80;;
76210;SDS011;65003;49.518;11.280;2023-05-02T04:30:21;9.87;;;6.93;;
76210;SDS011;65003;49.518;11.280;2023-05-02T04:32:48;8.20;;;6.53;;
76210;SDS011;65003;49.518;11.280;2023-05-02T04:35:15;8.90;;;7.47;;
76210;SDS011;65003;49.518;11.280;2023-05-02T04:37:41;8.43;;;6.93;;
76210;SDS011;65003;49.518;11.280;2023-05-02T04:40:08;10.37;;;7.40;;
76210;SDS011;65003;49.518;11.280;2023-05-02T04:42:35;9.47;;;6.93;;
76210;SDS011;65003;49.518;11.280;2023-05-02T04:45:01;9.90;;;8.88;;
76210;SDS011;65003;49.518;11.280;2023-05-02T04:47:28;7.93;;;7.13;;
76210;SDS011;65003;49.518;11.280;2023-05-02T04:49:54;7.90;;;7.10;;
76210;SDS011;65003;49.518;11.280;2023-05-02T04:52:21;8.57;;;6.93;;
76210;SDS011;65003;49.518;11.280;2023-05-02T04:54:48;7.50;;;6.53;;
76210;SDS011;65003;49.518;11.280;2023-05-02T04:57:14;7.93;;;7.03;;
76210;SDS011;65003;49.518;11.280;2023-05-02T04:59:41;8.10;;;7.30;;
76210;SDS011;65003;49.518;11.280;2023-05-02T05:02:07;8.30;;;7.50;;
76210;SDS011;65003;49.518;11.280;2023-05-02T05:04:34;10.20;;;7.90;;
76210;SDS011;65003;49.518;11.280;2023-05-02T05:07:01;14.50;;;12.93;;
76210;SDS011;65003;49.518;11.280;2023-05-02T05:09:27;18.17;;;16.60;;
76210;SDS011;65003;49.518;11.280;2023-05-02T05:11:54;10.97;;;8.17;;
76210;SDS011;65003;49.518;11.280;2023-05-02T05:14:20;9.70;;;7.53;;
76210;SDS011;65003;49.518;11.280;2023-05-02T05:16:47;13.60;;;8.37;;
76210;SDS011;65003;49.518;11.280;2023-05-02T05:19:13;14.97;;;6.90;;
76210;SDS011;65003;49.518;11.280;2023-05-02T05:21:40;9.23;;;7.07;;
76210;SDS011;65003;49.518;11.280;2023-05-02T05:24:07;9.83;;;7.37;;
76210;SDS011;65003;49.518;11.280;2023-05-02T05:26:33;8.27;;;7.47;;
76210;SDS011;65003;49.518;11.280;2023-05-02T05:29:00;9.47;;;7.77;;
76210;SDS011;65003;49.518;11.280;2023-05-02T05:31:27;9.40;;;8.07;;
76210;SDS011;65003;49.518;11.280;2023-05-02T05:33:53;9.30;;;7.90;;
76210;SDS011;65003;49.518;11.280;2023-05-02T05:36:20;9.67;;;8.67;;
76210;SDS011;65003;49.518;11.280;2023-05-02T05:38:47;11.60;;;9.87;;
76210;SDS011;65003;49.518;11.280;2023-05-02T05:41:13;10.67;;;8.43;;
76210;SDS011;65003;49.518;11.280;2023-05-02T05:43:40;8.93;;;8.03;;
76210;SDS011;65003;49.518;11.280;2023-05-02T05:46:06;11.97;;;10.83;;
76210;SDS011;65003;49.518;11.280;2023-05-02T05:48:33;10.23;;;8.93;;
76210;SDS011;65003;49.518;11.280;2023-05-02T05:51:02;16.00;;;14.60;;
76210;SDS011;65003;49.518;11.280;2023-05-02T05:53:28;10.10;;;8.80;;
76210;SDS011;65003;49.518;11.280;2023-05-02T05:55:55;10.60;;;9.23;;
76210;SDS011;65003;49.518;11.280;2023-05-02T05:58:21;10.93;;;8.87;;
76210;SDS011;65003;49.518;11.280;2023-05-02T06:00:48;12.10;;;8.63;;
76210;SDS011;65003;49.518;11.280;2023-05-02T06:03:14;12.17;;;8.33;;
76210;SDS011;65003;49.518;11.280;2023-05-02T06:05:41;10.00;;;8.27;;
76210;SDS011;65003;49.518;11.280;2023-05-02T06:08:07;11.80;;;8.50;;
76210;SDS011;65003;49.518;11.280;2023-05-02T06:10:34;14.50;;;9.30;;
76210;SDS011;65003;49.518;11.280;2023-05-02T06:13:01;10.37;;;8.50;;
76210;SDS011;65003;49.518;11.280;2023-05-02T06:15:27;22.23;;;10.57;;
76210;SDS011;65003;49.518;11.280;2023-05-02T06:17:54;14.30;;;8.83;;
76210;SDS011;65003;49.518;11.280;2023-05-02T06:20:20;10.13;;;8.43;;
76210;SDS011;65003;49.518;11.280;2023-05-02T06:22:47;16.87;;;10.20;;
76210;SDS011;65003;49.518;11.280;2023-05-02T06:25:14;16.80;;;9.40;;
76210;SDS011;65003;49.518;11.280;2023-05-02T06:27:40;13.43;;;10.20;;
76210;SDS011;65003;49.518;11.280;2023-05-02T06:30:07;15.17;;;12.30;;
76210;SDS011;65003;49.518;11.280;2023-05-02T06:32:35;26.80;;;20.23;;
76210;SDS011;65003;49.518;11.280;2023-05-02T06:35:01;16.23;;;12.13;;
76210;SDS011;65003;49.518;11.280;2023-05-02T06:37:31;14.47;;;10.30;;
76210;SDS011;65003;49.518;11.280;2023-05-02T06:39:57;13.83;;;9.70;;
76210;SDS011;65003;49.518;11.280;2023-05-02T06:42:24;12.30;;;9.23;;
76210;SDS011;65003;49.518;11.280;2023-05-02T06:44:51;12.10;;;10.13;;
76210;SDS011;65003;49.518;11.280;2023-05-02T06:47:18;13.07;;;10.53;;
76210;SDS011;65003;49.518;11.280;2023-05-02T06:49:45;11.33;;;9.50;;
76210;SDS011;65003;49.518;11.280;2023-05-02T06:52:13;13.77;;;10.37;;
76210;SDS011;65003;49.518;11.280;2023-05-02T06:54:40;11.77;;;10.57;;
76210;SDS011;65003;49.518;11.280;2023-05-02T06:57:06;11.83;;;10.60;;
76210;SDS011;65003;49.518;11.280;2023-05-02T06:59:33;14.30;;;11.10;;
76210;SDS011;65003;49.518;11.280;2023-05-02T07:01:59;10.93;;;9.83;;
76210;SDS011;65003;49.518;11.280;2023-05-02T07:04:26;11.23;;;10.13;;
76210;SDS011;65003;49.518;11.280;2023-05-02T07:06:53;11.47;;;9.60;;
76210;SDS011;65003;49.518;11.280;2023-05-02T07:09:19;12.03;;;10.17;;
76210;SDS011;65003;49.518;11.280;2023-05-02T07:11:46;14.30;;;10.73;;
76210;SDS011;65003;49.518;11.280;2023-05-02T07:14:13;12.83;;;10.73;;
76210;SDS011;65003;49.518;11.280;2023-05-02T07:16:40;12.00;;;10.50;;
76210;SDS011;65003;49.518;11.280;2023-05-02T07:19:07;15.10;;;11.63;;
76210;SDS011;65003;49.518;11.280;2023-05-02T07:21:33;13.73;;;10.50;;
76210;SDS011;65003;49.518;11.280;2023-05-02T07:24:01;11.67;;;10.33;;
76210;SDS011;65003;49.518;11.280;2023-05-02T07:26:27;12.67;;;10.23;;
76210;SDS011;65003;49.518;11.280;2023-05-02T07:28:54;11.90;;;10.30;;
76210;SDS011;65003;49.518;11.280;2023-05-02T07:31:21;13.43;;;10.80;;
76210;SDS011;65003;49.518;11.280;2023-05-02T07:33:47;13.40;;;10.60;;
76210;SDS011;65003;49.518;11.280;2023-05-02T07:36:17;11.93;;;10.17;;
76210;SDS011;65003;49.518;11.280;2023-05-02T07:38:43;12.90;;;10.20;;
76210;SDS011;65003;49.518;11.280;2023-05-02T07:41:12;12.63;;;10.30;;
76210;SDS011;65003;49.518;11.280;2023-05-02T07:43:38;11.10;;;9.93;;
76210;SDS011;65003;49.518;11.280;2023-05-02T07:46:04;14.00;;;10.90;;
76210;SDS011;65003;49.518;11.280;2023-05-02T07:48:31;15.63;;;11.80;;
76210;SDS011;65003;49.518;11.280;2023-05-02T07:53:30;13.00;;;10.77;;
76210;SDS011;65003;49.518;11.280;2023-05-02T07:55:57;11.87;;;9.97;;
76210;SDS011;65003;49.518;11.280;2023-05-02T07:58:24;11.33;;;10.10;;
76210;SDS011;65003;49.518;11.280;2023-05-02T08:00:50;14.90;;;10.90;;
76210;SDS011;65003;49.518;11.280;2023-05-02T08:03:18;13.33;;;11.93;;
76210;SDS011;65003;49.518;11.280;2023-05-02T08:05:44;12.40;;;9.63;;
76210;SDS011;65003;49.518;11.280;2023-05-02T08:08:11;10.73;;;9.63;;
76210;SDS011;65003;49.518;11.280;2023-05-02T08:10:38;11.93;;;9.47;;
76210;SDS011;65003;49.518;11.280;2023-05-02T08:13:04;10.37;;;9.23;;
76210;SDS011;65003;49.518;11.280;2023-05-02T08:15:31;10.80;;;9.67;;
76210;SDS011;65003;49.518;11.280;2023-05-02T08:17:57;11.33;;;8.50;;
76210;SDS011;65003;49.518;11.280;2023-05-02T08:20:24;15.43;;;8.93;;
76210;SDS011;65003;49.518;11.280;2023-05-02T08:22:51;10.57;;;9.40;;
76210;SDS011;65003;49.518;11.280;2023-05-02T08:25:17;9.43;;;8.43;;
76210;SDS011;65003;49.518;11.280;2023-05-02T08:27:44;11.07;;;9.17;;
76210;SDS011;65003;49.518;11.280;2023-05-02T08:30:11;10.47;;;9.40;;
76210;SDS011;65003;49.518;11.280;2023-05-02T08:32:38;11.10;;;9.83;;
76210;SDS011;65003;49.518;11.280;2023-05-02T08:35:05;10.83;;;9.73;;
76210;SDS011;65003;49.518;11.280;2023-05-02T08:37:32;12.13;;;8.70;;
76210;SDS011;65003;49.518;11.280;2023-05-02T08:39:59;10.57;;;9.20;;
76210;SDS011;65003;49.518;11.280;2023-05-02T08:42:25;13.27;;;9.77;;
76210;SDS011;65003;49.518;11.280;2023-05-02T08:44:51;12.37;;;9.10;;
76210;SDS011;65003;49.518;11.280;2023-05-02T08:47:18;9.73;;;8.73;;
76210;SDS011;65003;49.518;11.280;2023-05-02T08:49:45;11.33;;;8.57;;
76210;SDS011;65003;49.518;11.280;2023-05-02T08:52:11;10.07;;;8.20;;
76210;SDS011;65003;49.518;11.280;2023-05-02T08:54:38;11.40;;;8.83;;
76210;SDS011;65003;49.518;11.280;2023-05-02T08:57:04;9.87;;;7.73;;
76210;SDS011;65003;49.518;11.280;2023-05-02T08:59:31;10.70;;;8.00;;
76210;SDS011;65003;49.518;11.280;2023-05-02T09:02:00;8.77;;;7.87;;
76210;SDS011;65003;49.518;11.280;2023-05-02T09:04:24;10.20;;;8.40;;
76210;SDS011;65003;49.518;11.280;2023-05-02T09:06:51;9.90;;;7.57;;
76210;SDS011;65003;49.518;11.280;2023-05-02T09:09:17;8.20;;;7.50;;
76210;SDS011;65003;49.518;11.280;2023-05-02T09:11:45;8.20;;;7.40;;
76210;SDS011;65003;49.518;11.280;2023-05-02T09:14:13;9.17;;;7.67;;
76210;SDS011;65003;49.518;11.280;2023-05-02T09:16:39;8.53;;;6.73;;
76210;SDS011;65003;49.518;11.280;2023-05-02T09:19:06;6.97;;;6.13;;
76210;SDS011;65003;49.518;11.280;2023-05-02T09:21:35;8.57;;;6.43;;
76210;SDS011;65003;49.518;11.280;2023-05-02T09:24:01;8.93;;;6.83;;
76210;SDS011;65003;49.518;11.280;2023-05-02T09:26:28;6.60;;;5.97;;
76210;SDS011;65003;49.518;11.280;2023-05-02T09:28:55;6.53;;;6.00;;
76210;SDS011;65003;49.518;11.280;2023-05-02T09:31:23;6.30;;;5.70;;
76210;SDS011;65003;49.518;11.280;2023-05-02T09:33:49;6.20;;;5.60;;
76210;SDS011;65003;49.518;11.280;2023-05-02T09:36:16;5.87;;;5.37;;
76210;SDS011;65003;49.518;11.280;2023-05-02T09:38:42;6.20;;;5.27;;
76210;SDS011;65003;49.518;11.280;2023-05-02T09:41:08;5.77;;;5.20;;
76210;SDS011;65003;49.518;11.280;2023-05-02T09:43:35;5.90;;;5.40;;
76210;SDS011;65003;49.518;11.280;2023-05-02T09:46:03;5.97;;;5.47;;
76210;SDS011;65003;49.518;11.280;2023-05-02T09:48:29;6.60;;;5.50;;
76210;SDS011;65003;49.518;11.280;2023-05-02T09:50:56;6.37;;;5.77;;
76210;SDS011;65003;49.518;11.280;2023-05-02T09:53:24;7.13;;;5.47;;
76210;SDS011;65003;49.518;11.280;2023-05-02T09:55:58;5.73;;;5.23;;
76210;SDS011;65003;49.518;11.280;2023-05-02T09:58:24;6.00;;;5.37;;
76210;SDS011;65003;49.518;11.280;2023-05-02T10:00:50;5.67;;;5.17;;
76210;SDS011;65003;49.518;11.280;2023-05-02T10:03:17;7.43;;;5.77;;
76210;SDS011;65003;49.518;11.280;2023-05-02T10:05:44;6.23;;;5.63;;
76210;SDS011;65003;49.518;11.280;2023-05-02T10:08:10;5.53;;;5.03;;
76210;SDS011;65003;49.518;11.280;2023-05-02T10:10:39;6.67;;;5.47;;
76210;SDS011;65003;49.518;11.280;2023-05-02T10:13:04;6.20;;;5.60;;
76210;SDS011;65003;49.518;11.280;2023-05-02T10:15:30;6.63;;;5.93;;
76210;SDS011;65003;49.518;11.280;2023-05-02T10:17:57;5.93;;;5.43;;
76210;SDS011;65003;49.518;11.280;2023-05-02T10:20:24;5.90;;;5.40;;
76210;SDS011;65003;49.518;11.280;2023-05-02T10:22:50;7.20;;;6.50;;
76210;SDS011;65003;49.518;11.280;2023-05-02T10:25:16;7.33;;;6.63;;
76210;SDS011;65003;49.518;11.280;2023-05-02T10:27:43;7.20;;;6.60;;
76210;SDS011;65003;49.518;11.280;2023-05-02T10:30:11;7.47;;;5.57;;
76210;SDS011;65003;49.518;11.280;2023-05-02T10:32:37;9.10;;;6.17;;
76210;SDS011;65003;49.518;11.280;2023-05-02T10:35:04;9.17;;;5.93;;
76210;SDS011;65003;49.518;11.280;2023-05-02T10:37:31;6.97;;;5.30;;
76210;SDS011;65003;49.518;11.280;2023-05-02T10:39:59;6.77;;;6.17;;
76210;SDS011;65003;49.518;11.280;2023-05-02T10:42:25;6.87;;;5.97;;
76210;SDS011;65003;49.518;11.280;2023-05-02T10:44:52;6.30;;;5.70;;
76210;SDS011;65003;49.518;11.280;2023-05-02T10:47:19;5.90;;;5.40;;
76210;SDS011;65003;49.518;11.280;2023-05-02T10:49:49;6.03;;;5.43;;
76210;SDS011;65003;49.518;11.280;2023-05-02T10:52:33;6.90;;;6.20;;
76210;SDS011;65003;49.518;11.280;2023-05-02T11:00:19;5.90;;;5.40;;
76210;SDS011;65003;49.518;11.280;2023-05-02T11:02:46;5.60;;;5.10;;
76210;SDS011;65003;49.518;11.280;2023-05-02T11:05:13;5.67;;;5.17;;
76210;SDS011;65003;49.518;11.280;2023-05-02T11:07:39;7.40;;;6.00;;
76210;SDS011;65003;49.518;11.280;2023-05-02T11:12:50;7.57;;;5.67;;
76210;SDS011;65003;49.518;11.280;2023-05-02T11:15:57;6.13;;;5.23;;
76210;SDS011;65003;49.518;11.280;2023-05-02T11:18:10;6.83;;;6.13;;
76210;SDS011;65003;49.518;11.280;2023-05-02T11:20:38;5.90;;;5.40;;
76210;SDS011;65003;49.518;11.280;2023-05-02T11:25:48;6.17;;;4.67;;
76210;SDS011;65003;49.518;11.280;2023-05-02T11:30:52;4.93;;;4.43;;
76210;SDS011;65003;49.518;11.280;2023-05-02T11:33:19;6.53;;;4.03;;
76210;SDS011;65003;49.518;11.280;2023-05-02T11:35:46;5.37;;;4.87;;
76210;SDS011;65003;49.518;11.280;2023-05-02T11:38:14;4.70;;;3.90;;
76210;SDS011;65003;49.518;11.280;2023-05-02T11:40:40;3.93;;;3.53;;
76210;SDS011;65003;49.518;11.280;2023-05-02T11:43:11;4.03;;;3.63;;
76210;SDS011;65003;49.518;11.280;2023-05-02T11:45:37;4.33;;;3.93;;
76210;SDS011;65003;49.518;11.280;2023-05-02T11:48:04;4.23;;;3.80;;
76210;SDS011;65003;49.518;11.280;2023-05-02T11:50:31;5.23;;;4.17;;
76210;SDS011;65003;49.518;11.280;2023-05-02T11:52:58;6.03;;;3.57;;
76210;SDS011;65003;49.518;11.280;2023-05-02T11:55:25;5.60;;;3.53;;
76210;SDS011;65003;49.518;11.280;2023-05-02T11:57:52;6.07;;;3.90;;
76210;SDS011;65003;49.518;11.280;2023-05-02T12:00:19;4.47;;;4.07;;
76210;SDS011;65003;49.518;11.280;2023-05-02T12:02:46;4.97;;;3.60;;
76210;SDS011;65003;49.518;11.280;2023-05-02T12:05:13;4.23;;;3.87;;
76210;SDS011;65003;49.518;11.280;2023-05-02T12:07:40;3.33;;;3.03;;
76210;SDS011;65003;49.518;11.280;2023-05-02T12:10:07;4.60;;;4.17;;
76210;SDS011;65003;49.518;11.280;2023-05-02T12:12:34;3.83;;;3.47;;
76210;SDS011;65003;49.518;11.280;2023-05-02T12:15:03;4.00;;;3.60;;
76210;SDS011;65003;49.518;11.280;2023-05-02T12:17:29;6.73;;;3.70;;
76210;SDS011;65003;49.518;11.280;2023-05-02T12:19:55;4.90;;;3.50;;
76210;SDS011;65003;49.518;11.280;2023-05-02T12:22:22;6.63;;;3.90;;
76210;SDS011;65003;49.518;11.280;2023-05-02T12:24:48;4.60;;;3.30;;
76210;SDS011;65003;49.518;11.280;2023-05-02T12:27:15;4.20;;;3.80;;
76210;SDS011;65003;49.518;11.280;2023-05-02T12:29:43;3.07;;;2.77;;
76210;SDS011;65003;49.518;11.280;2023-05-02T12:32:09;5.30;;;4.00;;
76210;SDS011;65003;49.518;11.280;2023-05-02T12:34:35;5.33;;;3.83;;
76210;SDS011;65003;49.518;11.280;2023-05-02T12:37:02;6.00;;;3.43;;
76210;SDS011;65003;49.518;11.280;2023-05-02T12:39:37;7.20;;;4.10;;
76210;SDS011;65003;49.518;11.280;2023-05-02T12:42:08;5.87;;;3.80;;
76210;SDS011;65003;49.518;11.280;2023-05-02T12:44:34;5.57;;;4.13;;
76210;SDS011;65003;49.518;11.280;2023-05-02T12:47:01;6.50;;;4.77;;
76210;SDS011;65003;49.518;11.280;2023-05-02T12:49:28;7.73;;;4.73;;
76210;SDS011;65003;49.518;11.280;2023-05-02T12:51:55;20.80;;;7.67;;
76210;SDS011;65003;49.518;11.280;2023-05-02T12:54:21;10.53;;;5.33;;
76210;SDS011;65003;49.518;11.280;2023-05-02T12:56:48;8.83;;;4.80;;
76210;SDS011;65003;49.518;11.280;2023-05-02T12:59:33;5.60;;;4.03;;
76210;SDS011;65003;49.518;11.280;2023-05-02T13:02:00;5.60;;;5.10;;
76210;SDS011;65003;49.518;11.280;2023-05-02T13:04:36;4.97;;;4.50;;
76210;SDS011;65003;49.518;11.280;2023-05-02T13:07:02;5.03;;;4.30;;
76210;SDS011;65003;49.518;11.280;2023-05-02T13:09:29;5.60;;;4.20;;
76210;SDS011;65003;49.518;11.280;2023-05-02T13:11:55;5.23;;;3.13;;
76210;SDS011;65003;49.518;11.280;2023-05-02T13:14:22;4.17;;;3.33;;
76210;SDS011;65003;49.518;11.280;2023-05-02T13:16:48;2.53;;;2.23;;
76210;SDS011;65003;49.518;11.280;2023-05-02T13:19:15;4.40;;;3.37;;
76210;SDS011;65003;49.518;11.280;2023-05-02T13:21:42;7.93;;;4.23;;
76210;SDS011;65003;49.518;11.280;2023-05-02T13:24:08;6.43;;;4.50;;
76210;SDS011;65003;49.518;11.280;2023-05-02T13:26:35;6.00;;;4.37;;
76210;SDS011;65003;49.518;11.280;2023-05-02T13:29:01;5.10;;;4.33;;
76210;SDS011;65003;49.518;11.280;2023-05-02T13:31:28;6.93;;;4.50;;
76210;SDS011;65003;49.518;11.280;2023-05-02T13:33:55;5.47;;;4.63;;
76210;SDS011;65003;49.518;11.280;2023-05-02T13:36:21;11.43;;;5.83;;
76210;SDS011;65003;49.518;11.280;2023-05-02T13:38:48;5.07;;;3.90;;
76210;SDS011;65003;49.518;11.280;2023-05-02T13:41:14;5.43;;;4.17;;
76210;SDS011;65003;49.518;11.280;2023-05-02T13:43:41;3.93;;;3.57;;
76210;SDS011;65003;49.518;11.280;2023-05-02T13:46:08;5.13;;;4.17;;
76210;SDS011;65003;49.518;11.280;2023-05-02T13:48:34;5.67;;;3.60;;
76210;SDS011;65003;49.518;11.280;2023-05-02T13:51:01;4.70;;;3.20;;
76210;SDS011;65003;49.518;11.280;2023-05-02T13:53:27;3.73;;;3.03;;
76210;SDS011;65003;49.518;11.280;2023-05-02T13:55:54;3.03;;;2.50;;
76210;SDS011;65003;49.518;11.280;2023-05-02T13:58:21;4.40;;;2.60;;
76210;SDS011;65003;49.518;11.280;2023-05-02T14:00:47;3.93;;;2.87;;
76210;SDS011;65003;49.518;11.280;2023-05-02T14:03:14;3.43;;;2.40;;
76210;SDS011;65003;49.518;11.280;2023-05-02T14:05:41;3.47;;;2.20;;
76210;SDS011;65003;49.518;11.280;2023-05-02T14:08:07;3.50;;;2.60;;
76210;SDS011;65003;49.518;11.280;2023-05-02T14:10:35;3.27;;;2.70;;
76210;SDS011;65003;49.518;11.280;2023-05-02T14:13:02;2.87;;;2.63;;
76210;SDS011;65003;49.518;11.280;2023-05-02T14:15:29;3.30;;;2.20;;
76210;SDS011;65003;49.518;11.280;2023-05-02T14:17:55;2.90;;;2.17;;
76210;SDS011;65003;49.518;11.280;2023-05-02T14:20:22;3.97;;;2.80;;
76210;SDS011;65003;49.518;11.280;2023-05-02T14:22:48;2.33;;;2.10;;
76210;SDS011;65003;49.518;11.280;2023-05-02T14:25:15;2.50;;;2.30;;
76210;SDS011;65003;49.518;11.280;2023-05-02T14:27:42;2.93;;;1.50;;
76210;SDS011;65003;49.518;11.280;2023-05-02T14:30:08;1.80;;;1.70;;
76210;SDS011;65003;49.518;11.280;2023-05-02T14:32:35;1.93;;;1.40;;
76210;SDS011;65003;49.518;11.280;2023-05-02T14:35:02;1.93;;;1.23;;
76210;SDS011;65003;49.518;11.280;2023-05-02T14:37:28;1.50;;;1.40;;
76210;SDS011;65003;49.518;11.280;2023-05-02T14:39:55;1.57;;;1.20;;
76210;SDS011;65003;49.518;11.280;2023-05-02T14:42:22;3.07;;;1.60;;
76210;SDS011;65003;49.518;11.280;2023-05-02T14:44:48;1.43;;;1.10;;
76210;SDS011;65003;49.518;11.280;2023-05-02T14:47:15;1.30;;;1.20;;
76210;SDS011;65003;49.518;11.280;2023-05-02T14:49:41;1.50;;;1.40;;